Time;durP1;ratioP1;P1;durP2;ratioP2;P2;SDS_P1;SDS_P2;PMS_P1;PMS_P2;Temp;Humidity;BMP_temperature;BMP_pressure;BME280_temperature;BME280_humidity;BME280_pressure;Samples;Min_cycle;Max_cycle;Signal;HPM_P1;HPM_P2
2023/09/02 00:01:12;;;;;;;;;1.00;1.00;;;;;27.50;46.95;101408.97;5120392;27;45377;-73
2023/09/02 00:03:38;;;;;;;;;1.67;1.67;;;;;27.47;47.49;101402.19;5118124;27;46317;-73
2023/09/02 00:06:03;;;;;;;;;1.33;1.33;;;;;27.50;46.86;101406.31;5120205;27;45436;-73
2023/09/02 00:08:28;;;;;;;;;2.00;2.00;;;;;27.50;47.44;101417.81;5120190;27;45932;-73
2023/09/02 00:10:54;;;;;;;;;1.33;1.33;;;;;27.51;47.15;101418.63;5120305;27;45387;-73
2023/09/02 00:13:19;;;;;;;;;1.67;1.67;;;;;27.46;46.87;101416.56;5119835;27;46107;-73
2023/09/02 00:15:44;;;;;;;;;2.00;2.00;;;;;27.46;47.16;101411.22;5101233;27;45376;-73
2023/09/02 00:18:10;;;;;;;;;1.00;1.00;;;;;27.48;47.24;101411.84;5119946;27;45826;-73
2023/09/02 00:20:35;;;;;;;;;1.67;1.67;;;;;27.47;46.77;101412.88;5119985;27;45294;-73
2023/09/02 00:23:00;;;;;;;;;3.00;2.00;;;;;27.46;47.22;101415.72;5119603;27;46889;-73
2023/09/02 00:25:26;;;;;;;;;1.33;1.33;;;;;27.39;47.48;101416.56;5119964;27;45294;-73
2023/09/02 00:27:52;;;;;;;;;2.00;2.00;;;;;27.47;47.15;101425.41;5118758;27;45364;-73
2023/09/02 00:30:18;;;;;;;;;1.00;1.00;;;;;27.42;46.79;101419.84;5119818;27;45406;-73
2023/09/02 00:32:43;;;;;;;;;1.00;1.00;;;;;27.47;46.71;101422.75;5119322;27;46402;-73
2023/09/02 00:35:10;;;;;;;;;2.33;2.33;;;;;27.44;47.48;101418.63;5119651;27;45252;-73
2023/09/02 00:37:35;;;;;;;;;2.00;2.00;;;;;27.41;46.81;101405.66;5119763;27;45415;-73
2023/09/02 00:40:01;;;;;;;;;2.00;2.00;;;;;27.45;46.55;101412.25;5119599;27;45462;-73
2023/09/02 00:42:30;;;;;;;;;1.00;1.00;;;;;27.35;46.64;101393.13;5119455;27;46486;-73
2023/09/02 00:44:55;;;;;;;;;5.00;2.00;;;;;27.37;47.35;101399.94;5119858;27;45266;-73
2023/09/02 00:47:21;;;;;;;;;1.00;1.00;;;;;27.38;47.42;101403.41;5119040;27;45337;-73
2023/09/02 00:49:47;;;;;;;;;2.00;2.00;;;;;27.36;46.65;101392.91;5118259;27;45352;-73
2023/09/02 00:52:12;;;;;;;;;2.33;1.00;;;;;27.41;47.18;101405.66;5119267;27;47033;-73
2023/09/02 00:54:37;;;;;;;;;2.33;1.00;;;;;27.41;47.04;101403.00;5119484;27;45287;-73
2023/09/02 00:57:03;;;;;;;;;1.00;1.00;;;;;27.42;47.12;101401.97;5119682;27;45596;-73
2023/09/02 00:59:29;;;;;;;;;1.67;1.67;;;;;27.41;47.21;101408.34;5119275;27;45367;-73
2023/09/02 01:01:57;;;;;;;;;1.00;1.00;;;;;27.41;47.11;101411.00;5118809;27;45456;-73
2023/09/02 01:04:23;;;;;;;;;2.00;2.00;;;;;27.39;46.62;101408.56;5119320;27;45356;-73
2023/09/02 01:06:49;;;;;;;;;1.33;1.33;;;;;27.37;47.28;101404.44;5118502;27;45455;-73
2023/09/02 01:09:14;;;;;;;;;1.00;1.00;;;;;27.39;46.83;101411.22;5119287;27;45515;-73
2023/09/02 01:11:40;;;;;;;;;1.67;1.67;;;;;27.40;46.79;101404.03;5118239;27;45372;-73
2023/09/02 01:14:05;;;;;;;;;2.00;2.00;;;;;27.41;47.04;101424.38;5119088;27;45229;-73
2023/09/02 01:16:31;;;;;;;;;1.00;1.00;;;;;27.28;47.20;101407.28;5100636;27;45422;-73
2023/09/02 01:18:58;;;;;;;;;2.00;2.00;;;;;27.38;46.67;101419.44;5118135;27;45366;-73
2023/09/02 01:21:29;;;;;;;;;1.00;1.00;;;;;27.43;46.41;101430.31;5118904;27;45166;-73
2023/09/02 01:23:57;;;;;;;;;3.00;1.00;;;;;27.41;46.39;101421.69;5118881;27;45369;-73
2023/09/02 01:26:44;;;;;;;;;1.00;1.00;;;;;27.40;46.76;101434.22;5118659;27;45336;-73
2023/09/02 01:29:18;;;;;;;;;0.00;0.00;;;;;27.40;47.27;101436.91;5118468;27;45276;-73
2023/09/02 01:31:46;;;;;;;;;1.67;1.67;;;;;27.32;46.97;101418.41;5118695;27;46691;-73
2023/09/02 01:34:12;;;;;;;;;1.00;1.00;;;;;27.32;47.06;101418.41;5117973;27;45297;-74
2023/09/02 01:36:39;;;;;;;;;1.00;1.00;;;;;27.40;47.20;101438.78;5118571;27;45358;-73
2023/09/02 01:39:07;;;;;;;;;2.00;1.00;;;;;27.32;46.55;101421.09;5118120;27;45395;-73
2023/09/02 01:41:33;;;;;;;;;1.00;1.00;;;;;27.33;46.83;101428.06;5118570;27;46364;-73
2023/09/02 01:43:59;;;;;;;;;4.67;2.00;;;;;27.25;47.05;101421.06;5099709;27;45321;-73
2023/09/02 01:46:25;;;;;;;;;2.00;1.00;;;;;27.35;46.33;101430.53;5118753;27;45559;-73
2023/09/02 01:48:51;;;;;;;;;1.00;1.00;;;;;27.33;46.63;101429.91;5118523;27;45386;-73
2023/09/02 01:51:19;;;;;;;;;2.00;1.00;;;;;27.23;46.48;101415.09;5118373;27;46594;-73
2023/09/02 01:53:44;;;;;;;;;1.67;1.67;;;;;27.30;46.49;101423.09;5099962;27;45458;-73
2023/09/02 01:56:10;;;;;;;;;1.00;1.00;;;;;27.31;47.06;101418.59;5118484;27;45344;-73
2023/09/02 01:58:35;;;;;;;;;1.00;1.00;;;;;27.32;46.46;101421.09;5099508;27;45546;-72
2023/09/02 02:01:00;;;;;;;;;0.67;0.67;;;;;27.32;47.10;101418.41;5118491;27;46367;-73
2023/09/02 02:03:38;;;;;;;;;2.00;1.00;;;;;27.30;46.52;101407.09;5118345;27;45375;-73
2023/09/02 02:06:08;;;;;;;;;1.00;1.00;;;;;27.36;47.08;101414.28;5118509;27;45398;-73
2023/09/02 02:08:46;;;;;;;;;1.00;0.33;;;;;27.39;46.64;101421.09;5118260;27;45414;-73
2023/09/02 02:11:13;;;;;;;;;1.00;1.00;;;;;27.39;47.19;101413.06;5118111;27;46581;-73
2023/09/02 02:13:39;;;;;;;;;1.00;1.00;;;;;27.37;46.89;101412.44;5117858;27;45380;-73
2023/09/02 02:16:04;;;;;;;;;2.00;2.00;;;;;27.25;46.92;101397.00;5117966;27;45489;-73
2023/09/02 02:18:30;;;;;;;;;1.00;1.00;;;;;27.37;46.10;101409.78;5117008;27;45452;-73
2023/09/02 02:21:02;;;;;;;;;1.00;1.00;;;;;27.36;46.42;101402.78;5117891;27;45450;-73
2023/09/02 02:23:28;;;;;;;;;3.00;2.00;;;;;27.34;46.09;101399.50;5117980;27;45417;-74
2023/09/02 02:25:58;;;;;;;;;1.00;1.00;;;;;27.34;46.80;101396.81;5118216;27;45371;-73
2023/09/02 02:28:23;;;;;;;;;1.00;1.00;;;;;27.36;46.27;101400.09;5117658;27;45301;-73
2023/09/02 02:30:49;;;;;;;;;1.00;1.00;;;;;27.36;46.72;101410.78;5117512;27;46824;-73
2023/09/02 02:33:14;;;;;;;;;1.00;1.00;;;;;27.33;46.75;101396.00;5099140;27;46485;-73
2023/09/02 02:35:39;;;;;;;;;1.00;1.00;;;;;27.36;46.68;101402.78;5117967;27;45588;-74
2023/09/02 02:38:05;;;;;;;;;3.00;1.67;;;;;27.34;46.51;101392.31;5118092;27;45335;-73
2023/09/02 02:40:30;;;;;;;;;0.33;0.33;;;;;27.32;46.15;101398.88;5117778;27;45338;-73
2023/09/02 02:42:55;;;;;;;;;1.00;1.00;;;;;27.33;46.18;101396.00;5117546;27;45423;-73
2023/09/02 02:45:21;;;;;;;;;1.00;1.00;;;;;27.34;46.33;101394.16;5117868;27;45310;-73
2023/09/02 02:47:46;;;;;;;;;2.33;1.67;;;;;27.32;46.36;101391.69;5117489;27;45282;-73
2023/09/02 02:50:12;;;;;;;;;1.33;1.33;;;;;27.35;46.04;101409.16;5117581;27;46107;-73
2023/09/02 02:52:37;;;;;;;;;1.00;1.00;;;;;27.33;46.33;101404.00;5117603;27;45384;-72
2023/09/02 02:55:03;;;;;;;;;2.00;2.00;;;;;27.32;46.77;101399.72;5117682;27;45325;-73
2023/09/02 02:57:29;;;;;;;;;1.00;1.00;;;;;27.33;46.13;101413.88;5116792;27;45351;-73
2023/09/02 02:59:54;;;;;;;;;1.00;1.00;;;;;27.21;46.32;101397.63;5117090;27;47284;-73
2023/09/02 03:02:19;;;;;;;;;2.00;2.00;;;;;27.33;46.32;101424.56;5116263;27;45510;-73
2023/09/02 03:04:48;;;;;;;;;1.00;1.00;;;;;27.31;46.99;101415.94;5098991;27;45467;-73
2023/09/02 03:07:16;;;;;;;;;1.00;1.00;;;;;27.28;46.84;101412.63;5117517;27;45348;-73
2023/09/02 03:09:41;;;;;;;;;1.00;1.00;;;;;27.30;46.54;101407.09;5115826;27;47212;-73
2023/09/02 03:12:07;;;;;;;;;2.33;1.00;;;;;27.35;46.68;101403.81;5116779;27;45239;-73
2023/09/02 03:14:33;;;;;;;;;1.00;1.00;;;;;27.35;46.04;101390.47;5117377;27;45327;-73
2023/09/02 03:16:58;;;;;;;;;0.33;0.33;;;;;27.32;46.55;101373.00;5117441;27;45333;-73
2023/09/02 03:19:24;;;;;;;;;1.67;1.67;;;;;27.31;46.52;101376.69;5116630;27;45264;-74
2023/09/02 03:21:50;;;;;;;;;1.00;1.00;;;;;27.34;46.29;101383.47;5117218;27;45374;-72
2023/09/02 03:24:15;;;;;;;;;1.67;1.00;;;;;27.26;46.54;101374.63;5117177;27;45375;-73
2023/09/02 03:26:40;;;;;;;;;1.00;1.00;;;;;27.27;46.57;101383.47;5117006;27;45459;-73
2023/09/02 03:29:06;;;;;;;;;1.00;1.00;;;;;27.33;46.48;101401.34;5116288;27;45388;-73
2023/09/02 03:31:31;;;;;;;;;1.00;1.00;;;;;27.30;45.92;101417.75;5098402;27;45325;-73
2023/09/02 03:33:56;;;;;;;;;1.00;1.00;;;;;27.33;46.39;101430.72;5117061;27;45408;-73
2023/09/02 03:36:22;;;;;;;;;1.00;1.00;;;;;27.28;46.25;101420.66;5118144;27;45439;-73
2023/09/02 03:38:47;;;;;;;;;1.00;1.00;;;;;27.35;46.01;101438.56;5116763;27;45306;-73
2023/09/02 03:41:17;;;;;;;;;1.00;1.00;;;;;27.28;45.79;101419.81;5116275;27;45424;-73
2023/09/02 03:43:43;;;;;;;;;1.00;1.00;;;;;27.33;46.63;101422.72;5116660;27;45385;-73
2023/09/02 03:46:09;;;;;;;;;2.00;2.00;;;;;27.33;46.37;101417.38;5116734;27;45437;-72
2023/09/02 03:48:34;;;;;;;;;2.67;1.00;;;;;27.32;46.61;101425.59;5098035;27;47344;-73
2023/09/02 03:51:05;;;;;;;;;1.00;1.00;;;;;27.32;46.47;101423.75;5116797;27;45455;-73
2023/09/02 03:53:33;;;;;;;;;1.00;1.00;;;;;27.28;46.37;101426.00;5116700;27;45435;-73
2023/09/02 03:55:59;;;;;;;;;1.00;1.00;;;;;27.30;45.85;101436.47;5116396;27;45453;-73
2023/09/02 03:58:26;;;;;;;;;1.00;1.00;;;;;27.28;46.56;101435.84;5114999;27;45608;-73
2023/09/02 04:00:51;;;;;;;;;1.33;1.00;;;;;27.21;45.86;101419.00;5115852;27;45365;-73
2023/09/02 04:03:19;;;;;;;;;0.00;0.00;;;;;27.29;45.99;101434.84;5116621;27;45342;-73
2023/09/02 04:05:46;;;;;;;;;1.00;1.00;;;;;27.28;45.85;101443.88;5116669;27;45441;-73
2023/09/02 04:08:12;;;;;;;;;1.00;1.00;;;;;27.26;46.35;101443.25;5115782;27;46518;-73
2023/09/02 04:10:37;;;;;;;;;1.00;1.00;;;;;27.15;45.87;101420.63;5116112;27;45387;-73
2023/09/02 04:13:03;;;;;;;;;0.33;0.33;;;;;27.16;46.49;101412.41;5115495;27;45340;-73
2023/09/02 04:15:28;;;;;;;;;0.67;0.67;;;;;27.25;46.67;101428.22;5115769;27;45348;-73
2023/09/02 04:17:54;;;;;;;;;0.00;0.00;;;;;27.30;45.59;101439.13;5115874;27;47567;-73
2023/09/02 04:20:20;;;;;;;;;1.00;1.00;;;;;27.25;46.18;101436.25;5115940;27;45380;-74
2023/09/02 04:22:45;;;;;;;;;1.00;1.00;;;;;27.25;46.53;101428.22;5115035;27;45411;-73
2023/09/02 04:25:11;;;;;;;;;1.00;1.00;;;;;27.27;46.56;101429.69;5116111;27;45483;-73
2023/09/02 04:27:36;;;;;;;;;1.00;1.00;;;;;27.25;45.74;101415.72;5116215;27;47234;-74
2023/09/02 04:30:02;;;;;;;;;1.00;1.00;;;;;27.28;46.13;101411.81;5097488;27;45391;-73
2023/09/02 04:32:28;;;;;;;;;1.33;0.00;;;;;27.33;46.00;101409.34;5097839;27;45360;-73
2023/09/02 04:34:53;;;;;;;;;1.00;1.00;;;;;27.26;46.44;101413.88;5116006;27;45628;-73
2023/09/02 04:37:18;;;;;;;;;1.00;1.00;;;;;27.26;46.09;101422.72;5097633;27;47405;-73
2023/09/02 04:39:44;;;;;;;;;3.00;1.00;;;;;27.31;46.33;101421.25;5115755;27;45363;-73
2023/09/02 04:42:10;;;;;;;;;0.33;0.33;;;;;27.31;45.73;101429.28;5116853;27;45383;-73
2023/09/02 04:44:35;;;;;;;;;2.00;2.00;;;;;27.28;45.88;101436.69;5118663;27;45367;-73
2023/09/02 04:47:01;;;;;;;;;1.00;1.00;;;;;27.32;45.98;101455.81;5119307;27;46145;-73
2023/09/02 04:49:27;;;;;;;;;1.00;1.00;;;;;27.29;46.17;101459.72;5100877;27;45375;-74
2023/09/02 04:51:53;;;;;;;;;1.00;1.00;;;;;27.28;45.97;101454.56;5119205;27;45375;-73
2023/09/02 04:54:18;;;;;;;;;2.67;1.00;;;;;27.26;45.85;101452.09;5100783;27;45517;-74
2023/09/02 04:56:43;;;;;;;;;1.00;1.00;;;;;27.29;46.19;101449.03;5117869;27;46748;-73
2023/09/02 04:59:08;;;;;;;;;1.00;1.00;;;;;27.26;45.72;101438.72;5119325;27;45373;-73
2023/09/02 05:01:34;;;;;;;;;0.33;0.00;;;;;27.29;45.95;101437.50;5119518;27;45232;-73
2023/09/02 05:03:59;;;;;;;;;0.00;0.00;;;;;27.26;45.71;101444.06;5119624;27;45317;-73
2023/09/02 05:06:25;;;;;;;;;0.00;0.00;;;;;27.28;46.27;101458.06;5118893;27;46960;-73
2023/09/02 05:08:54;;;;;;;;;0.67;0.67;;;;;27.28;46.38;101462.56;5119135;27;45332;-73
2023/09/02 05:11:20;;;;;;;;;3.00;1.00;;;;;27.19;46.12;101443.25;5119342;27;45285;-73
2023/09/02 05:13:46;;;;;;;;;1.00;1.00;;;;;27.27;46.25;101447.59;5100139;27;45315;-73
2023/09/02 05:16:12;;;;;;;;;1.00;1.00;;;;;27.23;46.16;101435.63;5100587;27;46164;-73
2023/09/02 05:18:37;;;;;;;;;1.00;1.00;;;;;27.22;46.18;101432.13;5118607;27;45406;-73
2023/09/02 05:21:02;;;;;;;;;1.00;1.00;;;;;27.24;46.42;101443.47;5118985;27;45410;-73
2023/09/02 05:23:28;;;;;;;;;0.00;0.00;;;;;27.26;46.28;101461.94;5119237;27;45507;-73
2023/09/02 05:25:55;;;;;;;;;1.00;1.00;;;;;27.21;46.15;101462.56;5118703;27;47254;-73
2023/09/02 05:28:21;;;;;;;;;2.33;0.33;;;;;27.27;46.63;101469.75;5119132;27;45471;-73
2023/09/02 05:30:46;;;;;;;;;1.00;1.00;;;;;27.19;46.38;101464.63;5118834;27;45474;-73
2023/09/02 05:33:12;;;;;;;;;0.67;0.67;;;;;27.21;46.38;101465.22;5118763;27;45480;-73
2023/09/02 05:35:37;;;;;;;;;0.67;0.67;;;;;27.26;46.27;101480.66;5118815;27;45941;-73
2023/09/02 05:38:04;;;;;;;;;1.00;1.00;;;;;27.16;45.58;101462.34;5118897;27;45449;-73
2023/09/02 05:40:29;;;;;;;;;0.00;0.00;;;;;27.27;46.21;101480.44;5118941;27;45497;-73
2023/09/02 05:42:55;;;;;;;;;1.00;1.00;;;;;27.27;46.26;101480.44;5096640;27;45404;-73
2023/09/02 05:45:21;;;;;;;;;2.33;0.67;;;;;27.25;46.37;101477.16;5097657;27;47819;-73
2023/09/02 05:47:46;;;;;;;;;2.00;1.00;;;;;27.29;45.99;101489.09;5079594;27;45578;-73
2023/09/02 05:50:11;;;;;;;;;2.33;1.00;;;;;27.20;45.63;101476.09;5097550;27;45466;-73
2023/09/02 05:52:39;;;;;;;;;1.00;1.00;;;;;27.29;45.93;101510.47;5097412;27;50096;-73
2023/09/02 05:55:05;;;;;;;;;0.00;0.00;;;;;27.32;45.50;101524.44;5097878;27;45524;-73
2023/09/02 05:57:30;;;;;;;;;1.00;1.00;;;;;27.31;45.78;101520.13;5097868;27;45432;-73
2023/09/02 05:59:55;;;;;;;;;1.00;1.00;;;;;27.28;45.89;101516.00;5097943;27;45393;-73
2023/09/02 06:02:21;;;;;;;;;1.00;1.00;;;;;27.27;45.75;101522.38;5097908;27;45504;-74
2023/09/02 06:04:46;;;;;;;;;0.00;0.00;;;;;27.28;45.90;101534.69;5097590;27;46184;-73
2023/09/02 06:07:11;;;;;;;;;1.00;1.00;;;;;27.29;45.90;101545.19;5097826;27;45344;-73
2023/09/02 06:09:37;;;;;;;;;1.00;1.00;;;;;27.27;45.73;101546.41;5097768;27;45559;-73
2023/09/02 06:12:02;;;;;;;;;1.00;1.00;;;;;27.28;46.33;101551.56;5097356;27;45337;-73
2023/09/02 06:14:28;;;;;;;;;2.00;1.00;;;;;27.24;45.96;101546.81;5097502;27;46836;-73
2023/09/02 06:16:53;;;;;;;;;1.00;1.00;;;;;27.23;46.32;101539.81;5097560;27;45309;-73
2023/09/02 06:19:18;;;;;;;;;0.00;0.00;;;;;27.28;45.76;101548.88;5097413;27;45357;-73
2023/09/02 06:21:45;;;;;;;;;2.00;1.00;;;;;27.25;46.10;101546.59;5097804;27;45332;-73
2023/09/02 06:24:10;;;;;;;;;1.00;1.00;;;;;27.24;46.29;101536.13;5097404;27;46522;-73
2023/09/02 06:26:36;;;;;;;;;1.00;1.00;;;;;27.27;46.15;101543.75;5078984;27;45322;-73
2023/09/02 06:29:01;;;;;;;;;1.00;1.00;;;;;27.26;45.78;101539.41;5097325;27;45267;-73
2023/09/02 06:31:27;;;;;;;;;0.33;0.33;;;;;27.19;45.68;101534.06;5097596;27;45543;-73
2023/09/02 06:33:52;;;;;;;;;1.33;1.33;;;;;27.22;46.25;101547.00;5096615;27;46153;-73
2023/09/02 06:36:19;;;;;;;;;0.67;0.67;;;;;27.26;45.85;101547.44;5111807;27;45333;-73
2023/09/02 06:38:44;;;;;;;;;0.00;0.00;;;;;27.28;45.77;101548.06;5116937;27;45441;-73
2023/09/02 06:41:16;;;;;;;;;0.33;0.33;;;;;27.28;45.67;101551.56;5117551;27;45561;-73
2023/09/02 06:43:42;;;;;;;;;2.67;1.00;;;;;27.20;45.84;101534.84;5117712;27;46563;-73
2023/09/02 06:46:19;;;;;;;;;0.33;0.33;;;;;27.26;46.01;101558.13;5117591;27;45397;-73
2023/09/02 06:48:45;;;;;;;;;0.00;0.00;;;;;27.27;46.14;101549.09;5117514;27;45363;-73
2023/09/02 06:51:11;;;;;;;;;1.00;1.00;;;;;27.27;46.01;101563.25;5099343;27;45534;-73
2023/09/02 06:53:36;;;;;;;;;0.00;0.00;;;;;27.29;45.57;101563.06;5098851;27;46038;-73
2023/09/02 06:56:06;;;;;;;;;0.33;0.33;;;;;27.28;45.60;101556.91;5098864;27;45414;-73
2023/09/02 06:58:31;;;;;;;;;1.00;1.00;;;;;27.28;45.56;101564.91;5118081;27;45280;-73
2023/09/02 07:00:57;;;;;;;;;0.00;0.00;;;;;27.16;45.41;101547.81;5117695;27;45426;-73
2023/09/02 07:03:22;;;;;;;;;1.00;1.00;;;;;27.25;45.74;101559.97;5098547;27;47054;-73
2023/09/02 07:05:47;;;;;;;;;1.00;0.33;;;;;27.28;45.85;101566.75;5116273;27;50033;-73
2023/09/02 07:08:13;;;;;;;;;0.00;0.00;;;;;27.25;45.92;101567.97;5117698;27;45209;-73
2023/09/02 07:10:38;;;;;;;;;1.00;0.00;;;;;27.24;46.18;101576.19;5117560;27;45327;-74
2023/09/02 07:13:03;;;;;;;;;0.00;0.00;;;;;27.27;45.65;101583.81;5117241;27;46023;-73
2023/09/02 07:15:29;;;;;;;;;0.67;0.00;;;;;27.28;45.75;101583.63;5117473;27;45317;-73
2023/09/02 07:17:54;;;;;;;;;0.00;0.00;;;;;27.20;46.11;101572.25;5117157;27;45320;-73
2023/09/02 07:20:19;;;;;;;;;1.00;1.00;;;;;27.25;45.73;101585.84;5117378;27;45466;-73
2023/09/02 07:22:45;;;;;;;;;1.00;1.00;;;;;27.12;45.65;101575.88;5117184;27;46285;-73
2023/09/02 07:25:10;;;;;;;;;1.00;1.00;;;;;27.23;45.72;101604.75;5117091;27;45471;-73
2023/09/02 07:27:35;;;;;;;;;1.67;1.67;;;;;27.26;46.11;101625.72;5116338;27;45313;-73
2023/09/02 07:30:01;;;;;;;;;1.00;1.00;;;;;27.22;45.78;101624.47;5116396;27;45509;-73
2023/09/02 07:32:26;;;;;;;;;2.00;1.00;;;;;27.27;46.15;101642.59;5115728;27;45399;-72
2023/09/02 07:34:51;;;;;;;;;1.00;1.00;;;;;27.25;46.17;101649.94;5115977;27;45312;-73
2023/09/02 07:37:17;;;;;;;;;2.00;1.00;;;;;27.27;45.67;101647.94;5116274;27;45296;-73
2023/09/02 07:39:42;;;;;;;;;2.00;1.00;;;;;27.26;46.21;101649.78;5116330;27;45400;-73
2023/09/02 07:42:07;;;;;;;;;1.00;1.00;;;;;27.24;46.20;101642.97;5115869;27;45483;-73
2023/09/02 07:44:33;;;;;;;;;3.00;1.00;;;;;27.19;45.61;101632.91;5116081;27;45404;-73
2023/09/02 07:46:59;;;;;;;;;1.00;1.00;;;;;27.25;45.49;101631.25;5115837;27;45514;-73
2023/09/02 07:49:24;;;;;;;;;1.00;1.00;;;;;27.22;45.93;101629.81;5116039;27;45384;-72
2023/09/02 07:51:49;;;;;;;;;1.00;1.00;;;;;27.26;45.56;101633.75;5114923;27;46288;-74
2023/09/02 07:54:15;;;;;;;;;2.00;1.00;;;;;27.26;45.63;101640.94;5115590;27;45334;-73
2023/09/02 07:56:41;;;;;;;;;1.00;1.00;;;;;27.24;45.59;101638.47;5116571;27;45281;-73
2023/09/02 07:59:06;;;;;;;;;1.00;1.00;;;;;27.29;45.66;101638.69;5116780;27;45453;-74
2023/09/02 08:01:32;;;;;;;;;1.33;0.67;;;;;27.28;45.70;101636.22;5116293;27;47341;-75
2023/09/02 08:03:57;;;;;;;;;1.33;1.00;;;;;27.28;46.12;101628.19;5116529;27;45687;-75
2023/09/02 08:06:23;;;;;;;;;1.00;1.00;;;;;27.29;45.96;101632.53;5116582;27;45326;-76
2023/09/02 08:08:48;;;;;;;;;1.00;1.00;;;;;27.34;45.90;101646.13;5116803;27;45325;-76
2023/09/02 08:11:17;;;;;;;;;1.00;0.67;;;;;27.29;45.50;101633.34;5116511;27;45299;-76
2023/09/02 08:13:43;;;;;;;;;0.00;0.00;;;;;27.37;46.19;101635.03;5116468;27;45371;-75
2023/09/02 08:16:09;;;;;;;;;0.33;0.33;;;;;27.34;45.49;101629.25;5117681;27;45438;-75
2023/09/02 08:18:34;;;;;;;;;1.00;1.00;;;;;27.34;45.64;101619.41;5119951;27;45417;-78
2023/09/02 08:21:00;;;;;;;;;1.00;1.00;;;;;27.36;45.39;101611.19;5120089;27;46604;-79
2023/09/02 08:23:26;;;;;;;;;2.00;1.00;;;;;27.35;45.95;101615.69;5119909;27;45416;-78
2023/09/02 08:25:51;;;;;;;;;0.67;0.67;;;;;27.33;45.75;101604.38;5101596;27;45306;-79
2023/09/02 08:28:17;;;;;;;;;1.00;1.00;;;;;27.36;45.58;101598.66;5120019;27;45272;-79
2023/09/02 08:30:43;;;;;;;;;0.00;0.00;;;;;27.36;46.13;101604.00;5118931;27;45606;-79
2023/09/02 08:33:09;;;;;;;;;1.00;1.00;;;;;27.31;45.39;101592.25;5115042;27;45448;-78
2023/09/02 08:35:38;;;;;;;;;0.33;0.33;;;;;27.37;45.48;101607.50;5119429;27;45328;-79
2023/09/02 08:38:04;;;;;;;;;0.33;0.33;;;;;27.20;45.83;101569.59;5118825;27;45390;-79
2023/09/02 08:40:29;;;;;;;;;0.33;0.33;;;;;27.21;45.88;101579.25;5118049;27;46002;-74
2023/09/02 08:42:56;;;;;;;;;1.00;1.00;;;;;27.34;45.49;101594.53;5119419;27;45364;-74
2023/09/02 08:45:22;;;;;;;;;0.00;0.00;;;;;27.35;46.09;101597.00;5118890;27;45215;-74
2023/09/02 08:47:53;;;;;;;;;3.67;1.00;;;;;27.29;45.98;101593.28;5100766;27;45315;-74
2023/09/02 08:50:20;;;;;;;;;1.00;1.00;;;;;27.33;45.76;101600.88;5104238;27;46707;-75
2023/09/02 08:52:46;;;;;;;;;1.00;1.00;;;;;27.31;46.37;101609.09;5118320;27;45357;-73
2023/09/02 08:55:14;;;;;;;;;0.33;0.33;;;;;27.36;46.28;101614.69;5119071;27;45300;-76
2023/09/02 08:57:39;;;;;;;;;0.00;0.00;;;;;27.34;45.83;101610.56;5119699;27;45368;-76
2023/09/02 09:00:06;;;;;;;;;2.00;1.00;;;;;27.34;46.14;101600.69;5118723;27;46426;-74
2023/09/02 09:02:33;;;;;;;;;1.00;1.00;;;;;27.39;46.32;101603.59;5119336;27;45376;-73
2023/09/02 09:05:02;;;;;;;;;1.00;1.00;;;;;27.44;46.24;101608.34;5118280;27;45487;-73
2023/09/02 09:07:29;;;;;;;;;1.00;1.00;;;;;27.41;46.17;101592.69;5113941;27;45463;-74
2023/09/02 09:10:01;;;;;;;;;1.00;1.00;;;;;27.45;46.46;101601.16;5117359;27;47436;-73
2023/09/02 09:12:28;;;;;;;;;1.00;1.00;;;;;27.48;46.20;101614.13;5118559;27;45439;-74
2023/09/02 09:14:58;;;;;;;;;2.00;2.00;;;;;27.47;46.77;101609.78;5117907;27;45385;-75
2023/09/02 09:17:25;;;;;;;;;1.00;1.00;;;;;27.50;47.09;101606.72;5100452;27;45351;-74
2023/09/02 09:19:52;;;;;;;;;2.33;2.33;;;;;27.48;46.52;101606.13;5118781;27;45370;-74
2023/09/02 09:22:17;;;;;;;;;1.00;1.00;;;;;27.49;46.55;101613.91;5119104;27;45397;-76
2023/09/02 09:24:43;;;;;;;;;1.00;1.00;;;;;27.47;46.34;101613.28;5104710;27;45404;-76
2023/09/02 09:27:10;;;;;;;;;1.00;1.00;;;;;27.48;46.77;101616.81;5109801;27;45504;-76
2023/09/02 09:29:42;;;;;;;;;3.33;2.00;;;;;27.58;46.47;101641.31;5096446;27;46767;-75
2023/09/02 09:32:14;;;;;;;;;1.00;1.00;;;;;27.56;46.67;101637.19;5098047;27;45393;-75
2023/09/02 09:34:41;;;;;;;;;5.00;1.33;;;;;27.61;46.78;101643.56;5098564;27;45356;-75
2023/09/02 09:37:08;;;;;;;;;0.67;0.67;;;;;27.65;46.18;101640.50;5118787;27;45553;-76
2023/09/02 09:39:53;;;;;;;;;1.00;1.00;;;;;27.67;46.01;101641.94;5118762;27;46195;-75
2023/09/02 09:42:35;;;;;;;;;1.00;1.00;;;;;27.70;46.28;101643.41;5118111;27;45327;-76
2023/09/02 09:45:02;;;;;;;;;1.00;1.00;;;;;27.69;46.26;101645.25;5118691;27;45306;-76
2023/09/02 09:47:28;;;;;;;;;0.00;0.00;;;;;27.72;45.88;101655.53;5118486;27;45335;-76
2023/09/02 09:50:18;;;;;;;;;2.67;1.00;;;;;27.71;46.44;101647.72;5118452;27;45919;-75
2023/09/02 09:53:01;;;;;;;;;0.00;0.00;;;;;27.79;45.86;101660.91;5118089;27;45497;-75
2023/09/02 09:55:28;;;;;;;;;1.00;1.00;;;;;27.74;45.63;101650.81;5118733;27;45637;-75
2023/09/02 09:57:54;;;;;;;;;1.00;0.00;;;;;27.81;45.89;101663.41;5118654;27;45411;-76
2023/09/02 10:00:20;;;;;;;;;0.00;0.00;;;;;27.83;46.28;101666.72;5118576;27;46315;-76
2023/09/02 10:02:56;;;;;;;;;1.00;1.00;;;;;27.82;46.09;101670.41;5118436;27;45371;-75
2023/09/02 10:05:30;;;;;;;;;1.33;0.33;;;;;27.87;45.74;101681.31;5118900;27;45441;-75
2023/09/02 10:08:07;;;;;;;;;2.00;2.00;;;;;27.88;46.42;101688.31;5118385;27;45380;-75
2023/09/02 10:10:37;;;;;;;;;1.00;1.00;;;;;27.84;45.85;101681.75;5118455;27;47337;-75
2023/09/02 10:13:03;;;;;;;;;1.00;1.00;;;;;27.87;46.12;101691.22;5117829;27;45485;-75
2023/09/02 10:15:30;;;;;;;;;1.00;1.00;;;;;27.88;46.46;101688.31;5118413;27;45434;-75
2023/09/02 10:17:58;;;;;;;;;1.67;1.00;;;;;27.85;45.70;101692.22;5118089;27;45316;-75
2023/09/02 10:20:28;;;;;;;;;1.00;1.00;;;;;27.85;45.84;101686.03;5118011;27;45391;-75
2023/09/02 10:23:03;;;;;;;;;2.00;2.00;;;;;27.84;46.13;101690.56;5118106;27;45348;-75
2023/09/02 10:25:34;;;;;;;;;2.33;1.00;;;;;27.92;45.70;101704.81;5117830;27;45383;-75
2023/09/02 10:28:01;;;;;;;;;1.00;1.00;;;;;27.92;45.40;101705.59;5118078;27;45277;-75
2023/09/02 10:30:47;;;;;;;;;1.00;1.00;;;;;27.90;45.72;101709.50;5117590;27;46609;-76
2023/09/02 10:33:38;;;;;;;;;1.00;1.00;;;;;27.93;45.96;101714.47;5117842;27;45630;-77
2023/09/02 10:36:05;;;;;;;;;0.00;0.00;;;;;27.85;45.46;101691.41;5117870;27;45329;-81
2023/09/02 10:38:36;;;;;;;;;2.00;2.00;;;;;28.01;46.05;101714.28;5117683;27;45374;-81
2023/09/02 10:41:10;;;;;;;;;1.00;1.00;;;;;27.99;45.84;101696.81;5119944;27;46543;-82
2023/09/02 10:43:37;;;;;;;;;1.33;1.33;;;;;28.10;45.91;101709.59;5121101;27;45342;-80
2023/09/02 10:46:03;;;;;;;;;1.00;1.00;;;;;28.13;46.18;101709.19;5118025;27;45399;-81
2023/09/02 10:48:28;;;;;;;;;3.00;1.00;;;;;28.12;46.45;101701.38;5117748;27;45302;-81
2023/09/02 10:50:55;;;;;;;;;2.00;2.00;;;;;28.15;46.71;101691.09;5117954;27;45407;-81
2023/09/02 10:53:53;;;;;;;;;1.67;0.00;;;;;28.22;46.89;101709.00;5117295;27;45415;-81
2023/09/02 10:56:28;;;;;;;;;1.00;1.00;;;;;28.23;46.63;101708.81;5117295;27;45351;-76
2023/09/02 10:58:55;;;;;;;;;1.33;1.33;;;;;28.19;46.57;101702.19;5117254;27;45463;-77
2023/09/02 11:01:20;;;;;;;;;1.00;1.00;;;;;28.22;46.41;101712.50;5117363;27;45621;-77
2023/09/02 11:03:47;;;;;;;;;2.00;1.00;;;;;28.18;46.59;101711.28;5117408;27;45719;-75
2023/09/02 11:06:15;;;;;;;;;3.00;1.67;;;;;28.18;46.29;101712.06;5117290;27;45279;-74
2023/09/02 11:08:51;;;;;;;;;2.00;2.00;;;;;28.17;46.71;101712.28;5117464;27;45432;-74
2023/09/02 11:11:20;;;;;;;;;1.33;1.33;;;;;28.30;46.65;101732.91;5117158;27;45374;-77
2023/09/02 11:14:08;;;;;;;;;1.33;1.33;;;;;28.31;46.13;101731.88;5117135;27;45318;-76
2023/09/02 11:16:38;;;;;;;;;2.00;2.00;;;;;28.18;45.84;101712.06;5117379;27;45314;-76
2023/09/02 11:19:08;;;;;;;;;1.00;1.00;;;;;28.25;45.72;101727.34;5117039;27;45361;-75
2023/09/02 11:21:43;;;;;;;;;0.67;0.67;;;;;28.28;45.72;101737.63;5117042;27;46202;-75
2023/09/02 11:24:13;;;;;;;;;1.00;1.00;;;;;28.18;45.97;101722.78;5116643;27;45320;-75